ヘルシンキ/ヴァンター の空港の天気 - METARとTAF

ヘルシンキ・ヴァンター国際空港 ( EFHK / HEL ) - フィンランド ヴァンター
飛行場実況気象(Metar)
観測時間03/29 00:20 EEST (03/28 21:20 UTC)
風向・風速西 4m/s
視程10km以上
天気現象
なし
気温-1℃
湿度50%
気圧1014hPa
METAREFHK 282120Z 28008KT CAVOK M01/M10 Q1014 NOSIG
過去の天気等 Google飛行場航空写真 Wunderground天気予報

過去48時間のMETAR

飛行場予報(TAF)
発表時間: 3/28 23:30 EEST (3/28 20:30 UTC)
予報対象時間: 29日0時 EEST ~ 30日0時 EEST
風向・風速西北西 4m/s
視程10km以上
なし
TAF EFHK 282030Z 2821/2921 29007KT CAVOK